createdAt,value
2017-12-02T00:00:38.149Z,2.73
2017-12-02T00:01:38.126Z,2.71
2017-12-02T00:02:38.089Z,2.63
2017-12-02T00:03:38.057Z,2.58
2017-12-02T00:04:38.029Z,2.65
2017-12-02T00:05:38.004Z,2.61
2017-12-02T00:06:37.960Z,2.56
2017-12-02T00:07:37.934Z,2.55
2017-12-02T00:08:37.906Z,2.61
2017-12-02T00:09:37.877Z,2.53
2017-12-02T00:10:37.845Z,2.53
2017-12-02T00:11:37.818Z,2.63
2017-12-02T00:12:37.783Z,2.58
2017-12-02T00:13:37.757Z,2.61
2017-12-02T00:14:37.720Z,2.63
2017-12-02T00:15:37.687Z,2.51
2017-12-02T00:16:37.662Z,2.53
2017-12-02T00:17:37.637Z,2.56
2017-12-02T00:18:37.596Z,2.48
2017-12-02T00:19:37.564Z,2.48
2017-12-02T00:20:37.535Z,2.53
2017-12-02T00:21:37.505Z,2.56
2017-12-02T00:22:37.470Z,2.56
2017-12-02T00:23:37.435Z,2.59
2017-12-02T00:24:37.405Z,2.55
2017-12-02T00:25:37.370Z,2.56
2017-12-02T00:26:37.349Z,2.56
2017-12-02T00:27:37.665Z,2.55
2017-12-02T00:28:37.291Z,2.68
2017-12-02T00:29:37.255Z,2.63
2017-12-02T00:30:37.216Z,2.68
2017-12-02T00:31:37.188Z,2.63
2017-12-02T00:32:37.164Z,2.71
2017-12-02T00:33:37.125Z,2.61
2017-12-02T00:34:37.094Z,2.68
2017-12-02T00:35:37.072Z,2.73
2017-12-02T00:36:37.208Z,2.66
2017-12-02T00:37:37.003Z,2.71
2017-12-02T00:38:36.977Z,2.71
2017-12-02T00:39:36.932Z,2.68
2017-12-02T00:40:36.916Z,2.55
2017-12-02T00:41:36.883Z,2.59
2017-12-02T00:42:36.855Z,2.53
2017-12-02T00:43:36.807Z,2.58
2017-12-02T00:44:36.775Z,2.71
2017-12-02T00:45:37.098Z,2.71
2017-12-02T00:46:36.728Z,2.68
2017-12-02T00:47:36.691Z,2.58
2017-12-02T00:48:36.656Z,2.58
2017-12-02T00:49:36.630Z,2.59
2017-12-02T00:50:36.598Z,2.53
2017-12-02T00:51:36.562Z,2.53
2017-12-02T00:52:36.535Z,2.51
2017-12-02T00:53:36.503Z,2.58
2017-12-02T00:54:36.469Z,2.56
2017-12-02T00:55:36.438Z,2.56
2017-12-02T00:56:36.403Z,2.53
2017-12-02T00:57:36.382Z,2.68
2017-12-02T00:58:36.350Z,2.62
2017-12-02T00:59:36.307Z,2.71
2017-12-02T01:00:36.290Z,2.68
2017-12-02T01:01:36.252Z,2.63
2017-12-02T01:02:36.213Z,2.74
2017-12-02T01:03:36.489Z,2.71
2017-12-02T01:04:36.162Z,2.73
2017-12-02T01:05:36.125Z,2.68
2017-12-02T01:06:36.101Z,2.83
2017-12-02T01:07:36.060Z,2.69
2017-12-02T01:08:36.031Z,2.63
2017-12-02T01:09:36.001Z,2.69
2017-12-02T01:10:35.967Z,2.74
2017-12-02T01:11:35.935Z,2.77
2017-12-02T01:12:35.900Z,2.76
2017-12-02T01:13:35.875Z,2.80
2017-12-02T01:14:35.863Z,2.77
2017-12-02T01:15:36.068Z,2.76
2017-12-02T01:16:35.782Z,2.79
2017-12-02T01:17:35.759Z,2.79
2017-12-02T01:18:35.720Z,2.76
2017-12-02T01:19:35.688Z,2.76
2017-12-02T01:20:35.661Z,2.77
2017-12-02T01:21:35.621Z,2.77
2017-12-02T01:22:35.598Z,2.80
2017-12-02T01:23:35.619Z,2.80
2017-12-02T01:24:35.556Z,2.86
2017-12-02T01:25:35.512Z,2.86
2017-12-02T01:26:35.475Z,2.76
2017-12-02T01:27:35.449Z,2.92
2017-12-02T01:28:35.410Z,2.95
2017-12-02T01:29:35.382Z,2.81
2017-12-02T01:30:35.344Z,2.92
2017-12-02T01:31:35.316Z,2.92
2017-12-02T01:32:35.291Z,2.92
2017-12-02T01:33:35.510Z,2.97
2017-12-02T01:34:35.223Z,2.90
2017-12-02T01:35:35.191Z,2.87
2017-12-02T01:36:35.164Z,2.94
2017-12-02T01:37:35.130Z,2.89
2017-12-02T01:38:35.099Z,2.94
2017-12-02T01:39:35.368Z,2.95
2017-12-02T01:40:35.044Z,2.94
2017-12-02T01:41:35.012Z,2.90
2017-12-02T01:42:34.975Z,2.92
2017-12-02T01:43:34.941Z,2.97
2017-12-02T01:44:34.915Z,2.89
2017-12-02T01:45:35.140Z,3.08
2017-12-02T01:46:34.858Z,2.99
2017-12-02T01:47:34.814Z,3.19
2017-12-02T01:48:34.781Z,2.99
2017-12-02T01:49:34.758Z,3.16
2017-12-02T01:50:34.722Z,3.05
2017-12-02T01:51:34.950Z,3.04
2017-12-02T01:52:34.667Z,3.01
2017-12-02T01:53:34.627Z,3.08
2017-12-02T01:54:34.600Z,3.07
2017-12-02T01:55:34.566Z,3.07
2017-12-02T01:56:34.539Z,3.12
2017-12-02T01:57:34.863Z,3.10
2017-12-02T01:58:34.478Z,3.16
2017-12-02T01:59:34.446Z,3.08
2017-12-02T02:00:34.418Z,3.08
2017-12-02T02:01:34.383Z,3.10
2017-12-02T02:02:34.351Z,3.17
2017-12-02T02:03:34.324Z,3.12
2017-12-02T02:04:34.283Z,3.16
2017-12-02T02:05:34.261Z,3.13
2017-12-02T02:06:34.225Z,3.05
2017-12-02T02:07:34.201Z,3.12
2017-12-02T02:08:34.171Z,3.15
2017-12-02T02:09:34.139Z,3.12
2017-12-02T02:10:34.098Z,3.12
2017-12-02T02:11:34.070Z,3.08
2017-12-02T02:12:34.047Z,3.20
2017-12-02T02:13:34.017Z,3.20
2017-12-02T02:14:33.976Z,3.13
2017-12-02T02:15:34.199Z,3.17
2017-12-02T02:16:33.915Z,3.20
2017-12-02T02:17:33.890Z,3.16
2017-12-02T02:18:33.863Z,3.20
2017-12-02T02:19:33.818Z,3.16
2017-12-02T02:20:33.788Z,3.19
2017-12-02T02:21:33.763Z,3.16
2017-12-02T02:22:33.725Z,3.17
2017-12-02T02:23:33.698Z,3.17
2017-12-02T02:24:33.668Z,3.17
2017-12-02T02:25:33.635Z,3.15
2017-12-02T02:26:33.611Z,3.20
2017-12-02T02:27:33.577Z,3.22
2017-12-02T02:28:33.552Z,3.19
2017-12-02T02:29:33.521Z,3.19
2017-12-02T02:30:33.484Z,3.19
2017-12-02T02:31:33.458Z,3.20
2017-12-02T02:32:33.425Z,3.16
2017-12-02T02:33:33.640Z,3.26
2017-12-02T02:34:33.371Z,3.22
2017-12-02T02:35:33.335Z,3.22
2017-12-02T02:36:33.301Z,3.25
2017-12-02T02:37:33.268Z,3.25
2017-12-02T02:38:33.239Z,3.22
2017-12-02T02:39:33.211Z,3.23
2017-12-02T02:40:33.172Z,3.16
2017-12-02T02:41:33.148Z,3.25
2017-12-02T02:42:33.109Z,3.17
2017-12-02T02:43:33.077Z,3.19
2017-12-02T02:44:33.051Z,3.16
2017-12-02T02:45:33.370Z,3.16
2017-12-02T02:46:32.991Z,3.19
2017-12-02T02:47:32.960Z,3.16
2017-12-02T02:48:32.932Z,3.16
2017-12-02T02:49:32.890Z,3.17
2017-12-02T02:50:32.864Z,3.20
2017-12-02T02:51:33.087Z,3.16
2017-12-02T02:52:32.807Z,3.17
2017-12-02T02:53:32.776Z,3.17
2017-12-02T02:54:32.750Z,3.08
2017-12-02T02:55:32.702Z,3.13
2017-12-02T02:56:32.672Z,3.15
2017-12-02T02:57:33.003Z,3.02
2017-12-02T02:58:32.620Z,3.10
2017-12-02T02:59:32.578Z,3.10
2017-12-02T03:00:32.562Z,2.99
2017-12-02T03:01:32.528Z,3.10
2017-12-02T03:02:32.485Z,3.12
2017-12-02T03:03:32.457Z,2.98
2017-12-02T03:04:32.437Z,3.04
2017-12-02T03:05:32.397Z,2.99
2017-12-02T03:06:32.360Z,3.04
2017-12-02T03:07:32.344Z,3.12
2017-12-02T03:08:32.312Z,2.98
2017-12-02T03:09:32.282Z,2.99
2017-12-02T03:10:32.241Z,3.04
2017-12-02T03:11:32.206Z,3.04
2017-12-02T03:12:32.182Z,3.02
2017-12-02T03:13:32.148Z,3.08
2017-12-02T03:14:32.135Z,3.04
2017-12-02T03:15:32.082Z,2.99
2017-12-02T03:16:32.058Z,2.99
2017-12-02T03:17:32.033Z,3.05
2017-12-02T03:18:31.988Z,2.99
2017-12-02T03:19:31.962Z,3.04
2017-12-02T03:20:31.937Z,3.05
2017-12-02T03:21:31.903Z,3.01
2017-12-02T03:22:31.868Z,2.95
2017-12-02T03:23:31.841Z,2.89
2017-12-02T03:24:31.806Z,2.98
2017-12-02T03:25:31.775Z,2.95
2017-12-02T03:26:31.746Z,2.94
2017-12-02T03:27:31.965Z,2.97
2017-12-02T03:28:31.676Z,2.94
2017-12-02T03:29:31.657Z,2.92
2017-12-02T03:30:31.619Z,2.90
2017-12-02T03:31:31.593Z,2.94
2017-12-02T03:32:31.562Z,2.94
2017-12-02T03:33:31.872Z,2.95
2017-12-02T03:34:31.497Z,2.89
2017-12-02T03:35:31.470Z,2.98
2017-12-02T03:36:31.436Z,2.77
2017-12-02T03:37:31.398Z,2.83
2017-12-02T03:38:31.375Z,2.77
2017-12-02T03:39:31.638Z,2.80
2017-12-02T03:40:31.309Z,2.76
2017-12-02T03:41:31.281Z,2.79
2017-12-02T03:42:31.244Z,2.77
2017-12-02T03:43:31.212Z,2.66
2017-12-02T03:44:31.187Z,2.68
2017-12-02T03:45:31.152Z,2.65
2017-12-02T03:46:31.129Z,2.66
2017-12-02T03:47:31.080Z,2.59
2017-12-02T03:48:31.050Z,2.62
2017-12-02T03:49:31.031Z,2.51
2017-12-02T03:50:30.991Z,2.51
2017-12-02T03:51:30.964Z,2.58
2017-12-02T03:52:30.930Z,2.51
2017-12-02T03:53:30.890Z,2.61
2017-12-02T03:54:30.864Z,2.61
2017-12-02T03:55:30.830Z,2.55
2017-12-02T03:56:30.806Z,2.58
2017-12-02T03:57:31.069Z,2.71
2017-12-02T03:58:30.731Z,2.56
2017-12-02T03:59:30.703Z,2.51
2017-12-02T04:00:30.679Z,2.55
2017-12-02T04:01:30.643Z,2.55
2017-12-02T04:02:30.618Z,2.63
2017-12-02T04:03:30.829Z,2.65
2017-12-02T04:04:30.544Z,2.61
2017-12-02T04:05:30.514Z,2.58
2017-12-02T04:06:30.482Z,2.51
2017-12-02T04:07:30.452Z,2.53
2017-12-02T04:08:30.414Z,2.63
2017-12-02T04:09:30.377Z,2.47
2017-12-02T04:10:30.349Z,2.51
2017-12-02T04:11:30.366Z,2.55
2017-12-02T04:12:30.295Z,2.56
2017-12-02T04:13:30.287Z,2.51
2017-12-02T04:14:30.222Z,2.50
2017-12-02T04:15:30.187Z,2.38
2017-12-02T04:16:30.152Z,2.44
2017-12-02T04:17:30.133Z,2.45
2017-12-02T04:18:30.091Z,2.48
2017-12-02T04:19:30.059Z,2.48
2017-12-02T04:20:30.025Z,2.40
2017-12-02T04:21:29.999Z,2.53
2017-12-02T04:22:29.971Z,2.48
2017-12-02T04:23:29.940Z,2.51
2017-12-02T04:24:29.902Z,2.53
2017-12-02T04:25:29.871Z,2.58
2017-12-02T04:26:29.829Z,2.50
2017-12-02T04:27:29.800Z,2.55
2017-12-02T04:28:29.778Z,2.51
2017-12-02T04:29:29.735Z,2.50
2017-12-02T04:30:29.712Z,2.56
2017-12-02T04:31:29.675Z,2.59
2017-12-02T04:32:29.644Z,2.48
2017-12-02T04:33:29.916Z,2.50
2017-12-02T04:34:29.580Z,2.51
2017-12-02T04:35:29.550Z,2.48
2017-12-02T04:36:29.517Z,2.56
2017-12-02T04:37:29.479Z,2.50
2017-12-02T04:38:29.447Z,2.50
2017-12-02T04:39:29.673Z,2.55
2017-12-02T04:40:29.395Z,2.53
2017-12-02T04:41:29.352Z,2.51
2017-12-02T04:42:29.316Z,2.50
2017-12-02T04:43:29.285Z,2.48
2017-12-02T04:44:29.253Z,2.56
2017-12-02T04:45:29.221Z,2.51
2017-12-02T04:46:29.198Z,2.56
2017-12-02T04:47:29.154Z,2.56
2017-12-02T04:48:29.117Z,2.53
2017-12-02T04:49:29.094Z,2.51
2017-12-02T04:50:29.055Z,2.55
2017-12-02T04:51:29.287Z,2.51
2017-12-02T04:52:29.001Z,2.40
2017-12-02T04:53:28.967Z,2.40
2017-12-02T04:54:28.926Z,2.45
2017-12-02T04:55:28.896Z,2.43
2017-12-02T04:56:28.864Z,2.45
2017-12-02T04:57:28.880Z,2.41
2017-12-02T04:58:28.801Z,2.50
2017-12-02T04:59:28.764Z,2.45
2017-12-02T05:00:28.739Z,2.45
2017-12-02T05:01:28.709Z,2.51
2017-12-02T05:02:28.686Z,2.47
2017-12-02T05:03:28.640Z,2.50
2017-12-02T05:04:28.605Z,2.50
2017-12-02T05:05:28.566Z,2.48
2017-12-02T05:06:28.534Z,2.51
2017-12-02T05:07:28.503Z,2.56
2017-12-02T05:08:28.479Z,2.43
2017-12-02T05:09:28.439Z,2.48
2017-12-02T05:10:28.413Z,2.38
2017-12-02T05:11:28.374Z,2.37
2017-12-02T05:12:28.350Z,2.32
2017-12-02T05:13:28.311Z,2.32
2017-12-02T05:14:28.284Z,2.33
2017-12-02T05:15:28.243Z,2.44
2017-12-02T05:16:28.208Z,2.45
2017-12-02T05:17:28.176Z,2.37
2017-12-02T05:18:28.153Z,2.37
2017-12-02T05:19:28.117Z,2.37
2017-12-02T05:20:28.380Z,2.36
2017-12-02T05:21:28.052Z,2.33
2017-12-02T05:22:28.021Z,2.36
2017-12-02T05:23:27.990Z,2.36
2017-12-02T05:24:27.964Z,2.29
2017-12-02T05:25:27.923Z,2.43
2017-12-02T05:26:27.890Z,2.30
2017-12-02T05:27:27.859Z,2.33
2017-12-02T05:28:27.826Z,2.40
2017-12-02T05:29:27.803Z,2.44
2017-12-02T05:30:27.763Z,2.41
2017-12-02T05:31:27.727Z,2.43
2017-12-02T05:32:27.999Z,2.41
2017-12-02T05:33:27.657Z,2.45
2017-12-02T05:34:27.638Z,2.40
2017-12-02T05:35:27.600Z,2.40
2017-12-02T05:36:27.568Z,2.38
2017-12-02T05:37:27.538Z,2.33
2017-12-02T05:38:27.752Z,2.36
2017-12-02T05:39:27.474Z,2.38
2017-12-02T05:40:27.432Z,2.33
2017-12-02T05:41:27.404Z,2.38
2017-12-02T05:42:27.366Z,2.32
2017-12-02T05:43:27.331Z,2.33
2017-12-02T05:44:27.546Z,2.41
2017-12-02T05:45:27.279Z,2.27
2017-12-02T05:46:27.241Z,2.22
2017-12-02T05:47:27.206Z,2.22
2017-12-02T05:48:27.173Z,2.15
2017-12-02T05:49:27.134Z,2.27
2017-12-02T05:50:27.420Z,2.18
2017-12-02T05:51:27.074Z,2.26
2017-12-02T05:52:27.049Z,2.26
2017-12-02T05:53:27.007Z,2.20
2017-12-02T05:54:26.994Z,2.30
2017-12-02T05:55:26.946Z,2.25
2017-12-02T05:56:27.171Z,2.29
2017-12-02T05:57:26.885Z,2.23
2017-12-02T05:58:26.855Z,2.23
2017-12-02T05:59:26.819Z,2.30
2017-12-02T06:00:26.776Z,2.11
2017-12-02T06:01:26.749Z,2.25
2017-12-02T06:02:26.721Z,2.18
2017-12-02T06:03:26.678Z,2.27
2017-12-02T06:04:26.647Z,2.25
2017-12-02T06:05:26.615Z,2.30
2017-12-02T06:06:26.579Z,2.19
2017-12-02T06:07:26.571Z,2.19
2017-12-02T06:08:26.528Z,2.26
2017-12-02T06:09:26.496Z,2.23
2017-12-02T06:10:26.462Z,2.18
2017-12-02T06:11:26.420Z,2.29
2017-12-02T06:12:26.388Z,2.18
2017-12-02T06:13:26.367Z,2.14
2017-12-02T06:14:26.382Z,2.15
2017-12-02T06:15:26.295Z,2.20
2017-12-02T06:16:26.260Z,2.14
2017-12-02T06:17:26.232Z,2.18
2017-12-02T06:18:26.190Z,2.11
2017-12-02T06:19:26.163Z,2.25
2017-12-02T06:20:26.128Z,2.19
2017-12-02T06:21:26.095Z,2.09
2017-12-02T06:22:26.058Z,2.12
2017-12-02T06:23:26.029Z,2.15
2017-12-02T06:24:25.998Z,2.22
2017-12-02T06:25:25.963Z,2.18
2017-12-02T06:26:26.234Z,2.14
2017-12-02T06:27:25.903Z,2.20
2017-12-02T06:28:25.864Z,2.15
2017-12-02T06:29:25.839Z,2.23
2017-12-02T06:30:25.801Z,2.20
2017-12-02T06:31:25.776Z,2.25
2017-12-02T06:32:26.040Z,2.27
2017-12-02T06:33:25.708Z,2.41
2017-12-02T06:34:25.716Z,2.40
2017-12-02T06:35:25.634Z,2.22
2017-12-02T06:36:25.599Z,2.26
2017-12-02T06:37:25.568Z,2.32
2017-12-02T06:38:25.884Z,2.32
2017-12-02T06:39:25.509Z,2.32
2017-12-02T06:40:25.478Z,2.20
2017-12-02T06:41:25.448Z,2.25
2017-12-02T06:42:25.409Z,2.18
2017-12-02T06:43:25.380Z,2.01
2017-12-02T06:44:25.599Z,2.14
2017-12-02T06:45:25.318Z,2.07
2017-12-02T06:46:25.287Z,2.05
2017-12-02T06:47:25.239Z,2.05
2017-12-02T06:48:25.244Z,2.08
2017-12-02T06:49:25.238Z,2.12
2017-12-02T06:50:25.150Z,2.14
2017-12-02T06:51:25.119Z,2.09
2017-12-02T06:52:25.079Z,2.22
2017-12-02T06:53:25.042Z,2.19
2017-12-02T06:54:25.009Z,2.11
2017-12-02T06:55:24.982Z,2.14
2017-12-02T06:56:24.957Z,2.12
2017-12-02T06:57:24.930Z,2.02
2017-12-02T06:58:24.882Z,2.01
2017-12-02T06:59:24.863Z,2.09
2017-12-02T07:00:24.826Z,2.08
2017-12-02T07:01:24.784Z,1.89
2017-12-02T07:02:24.754Z,2.00
2017-12-02T07:03:24.727Z,2.00
2017-12-02T07:04:24.688Z,2.08
2017-12-02T07:05:24.658Z,2.09
2017-12-02T07:06:24.621Z,2.05
2017-12-02T07:07:24.592Z,2.09
2017-12-02T07:08:24.863Z,2.12
2017-12-02T07:09:24.536Z,2.08
2017-12-02T07:10:24.507Z,2.07
2017-12-02T07:11:24.459Z,2.12
2017-12-02T07:12:24.431Z,2.02
2017-12-02T07:13:24.395Z,2.02
2017-12-02T07:14:24.370Z,1.95
2017-12-02T07:15:24.327Z,2.14
2017-12-02T07:16:24.299Z,2.04
2017-12-02T07:17:24.265Z,2.01
2017-12-02T07:18:24.230Z,1.98
2017-12-02T07:19:24.212Z,2.00
2017-12-02T07:20:24.431Z,1.98
2017-12-02T07:21:24.139Z,2.04
2017-12-02T07:22:24.108Z,2.01
2017-12-02T07:23:24.070Z,1.98
2017-12-02T07:24:24.038Z,1.92
2017-12-02T07:25:24.002Z,1.98
2017-12-02T07:26:23.970Z,1.95
2017-12-02T07:27:23.941Z,1.92
2017-12-02T07:28:23.902Z,2.04
2017-12-02T07:29:23.880Z,2.01
2017-12-02T07:30:23.855Z,1.93
2017-12-02T07:31:23.804Z,1.98
2017-12-02T07:32:23.782Z,1.90
2017-12-02T07:33:23.745Z,1.98
2017-12-02T07:34:23.714Z,1.98
2017-12-02T07:35:23.683Z,1.93
2017-12-02T07:36:23.643Z,1.90
2017-12-02T07:37:23.664Z,1.95
2017-12-02T07:38:23.873Z,1.88
2017-12-02T07:39:23.555Z,1.86
2017-12-02T07:40:23.518Z,1.88
2017-12-02T07:41:23.481Z,1.88
2017-12-02T07:42:23.449Z,1.93
2017-12-02T07:43:23.410Z,1.95
2017-12-02T07:44:23.681Z,1.88
2017-12-02T07:45:23.350Z,1.92
2017-12-02T07:46:23.326Z,1.89
2017-12-02T07:47:23.287Z,2.07
2017-12-02T07:48:23.256Z,1.95
2017-12-02T07:49:23.222Z,2.01
2017-12-02T07:50:23.439Z,1.89
2017-12-02T07:51:23.155Z,1.90
2017-12-02T07:52:23.127Z,1.93
2017-12-02T07:53:23.084Z,1.95
2017-12-02T07:54:23.052Z,1.90
2017-12-02T07:55:23.028Z,2.05
2017-12-02T07:56:22.994Z,1.95
2017-12-02T07:57:22.957Z,1.93
2017-12-02T07:58:22.996Z,1.95
2017-12-02T07:59:22.892Z,1.98
2017-12-02T08:00:22.863Z,1.95
2017-12-02T08:01:22.829Z,1.92
2017-12-02T08:02:23.052Z,2.07
2017-12-02T08:03:22.765Z,2.14
2017-12-02T08:04:22.733Z,2.14
2017-12-02T08:05:22.723Z,2.15
2017-12-02T08:06:22.669Z,2.14
2017-12-02T08:07:22.632Z,2.09
2017-12-02T08:08:22.603Z,2.07
2017-12-02T08:09:22.569Z,2.07
2017-12-02T08:10:22.543Z,2.09
2017-12-02T08:11:22.507Z,2.05
2017-12-02T08:12:22.470Z,2.12
2017-12-02T08:13:22.446Z,1.95
2017-12-02T08:14:22.405Z,2.04
2017-12-02T08:15:22.378Z,2.00
2017-12-02T08:16:22.336Z,2.02
2017-12-02T08:17:22.318Z,1.92
2017-12-02T08:18:22.283Z,1.93
2017-12-02T08:19:22.250Z,1.95
2017-12-02T08:20:22.457Z,2.05
2017-12-02T08:21:22.190Z,1.93
2017-12-02T08:22:22.153Z,1.90
2017-12-02T08:23:22.129Z,1.90
2017-12-02T08:24:22.088Z,1.88
2017-12-02T08:25:22.057Z,1.83
2017-12-02T08:26:22.020Z,1.90
2017-12-02T08:27:21.984Z,1.86
2017-12-02T08:28:21.953Z,1.81
2017-12-02T08:29:21.922Z,1.85
2017-12-02T08:30:21.893Z,1.85
2017-12-02T08:31:21.856Z,1.82
2017-12-02T08:32:21.823Z,1.83
2017-12-02T08:33:21.800Z,1.88
2017-12-02T08:34:21.758Z,1.75
2017-12-02T08:35:21.724Z,1.83
2017-12-02T08:36:21.688Z,1.74
2017-12-02T08:37:21.667Z,1.81
2017-12-02T08:38:21.631Z,1.81
2017-12-02T08:39:21.600Z,1.70
2017-12-02T08:40:21.570Z,1.72
2017-12-02T08:41:21.533Z,1.75
2017-12-02T08:42:21.502Z,1.71
2017-12-02T08:43:21.467Z,1.61
2017-12-02T08:44:21.688Z,1.64
2017-12-02T08:45:21.403Z,1.63
2017-12-02T08:46:21.381Z,1.57
2017-12-02T08:47:21.332Z,1.60
2017-12-02T08:48:21.301Z,1.61
2017-12-02T08:49:21.276Z,1.60
2017-12-02T08:50:21.245Z,1.57
2017-12-02T08:51:21.218Z,1.60
2017-12-02T08:52:21.178Z,1.64
2017-12-02T08:53:21.145Z,1.74
2017-12-02T08:54:21.111Z,1.77
2017-12-02T08:55:21.077Z,1.65
2017-12-02T08:56:21.295Z,1.64
2017-12-02T08:57:21.018Z,1.67
2017-12-02T08:58:20.977Z,1.60
2017-12-02T08:59:20.953Z,1.42
2017-12-02T09:00:20.924Z,1.44
2017-12-02T09:01:20.890Z,1.35
2017-12-02T09:02:20.852Z,1.34
2017-12-02T09:03:20.815Z,1.34
2017-12-02T09:04:20.785Z,1.35
2017-12-02T09:05:20.761Z,1.25
2017-12-02T09:06:20.733Z,1.17
2017-12-02T09:07:20.695Z,1.24
2017-12-02T09:08:20.669Z,1.28
2017-12-02T09:09:20.633Z,1.25
2017-12-02T09:10:20.594Z,1.25
2017-12-02T09:11:20.565Z,1.28
2017-12-02T09:12:20.532Z,1.14
2017-12-02T09:13:20.503Z,1.18
2017-12-02T09:14:20.473Z,1.17
2017-12-02T09:15:20.460Z,1.20
2017-12-02T09:16:20.404Z,1.24
2017-12-02T09:17:20.383Z,1.13
2017-12-02T09:18:20.337Z,1.02
2017-12-02T09:19:20.316Z,0.98
2017-12-02T09:20:20.587Z,0.92
2017-12-02T09:21:20.244Z,0.90
2017-12-02T09:22:20.208Z,0.96
2017-12-02T09:23:20.189Z,0.98
2017-12-02T09:24:20.156Z,1.07
2017-12-02T09:25:20.132Z,0.89
2017-12-02T09:26:20.331Z,0.98
2017-12-02T09:27:20.047Z,0.86
2017-12-02T09:28:20.023Z,0.89
2017-12-02T09:29:19.987Z,0.90
2017-12-02T09:30:19.953Z,0.81
2017-12-02T09:31:19.919Z,0.78
2017-12-02T09:32:19.891Z,0.74
2017-12-02T09:33:19.860Z,0.84
2017-12-02T09:34:19.827Z,0.86
2017-12-02T09:35:19.806Z,0.92
2017-12-02T09:36:19.768Z,0.75
2017-12-02T09:37:19.725Z,0.88
2017-12-02T09:38:19.717Z,0.78
2017-12-02T09:39:19.676Z,0.81
2017-12-02T09:40:19.641Z,0.71
2017-12-02T09:41:19.641Z,0.72
2017-12-02T09:42:19.577Z,0.75
2017-12-02T09:43:19.531Z,0.71
2017-12-02T09:44:19.514Z,0.78
2017-12-02T09:45:19.483Z,0.80
2017-12-02T09:46:19.442Z,0.74
2017-12-02T09:47:19.412Z,0.70
2017-12-02T09:48:19.381Z,0.60
2017-12-02T09:49:19.349Z,0.59
2017-12-02T09:50:19.311Z,0.62
2017-12-02T09:51:19.286Z,0.67
2017-12-02T09:52:19.264Z,0.56
2017-12-02T09:53:19.216Z,0.74
2017-12-02T09:54:19.186Z,0.72
2017-12-02T09:55:19.150Z,0.74
2017-12-02T09:56:19.430Z,0.71
2017-12-02T09:57:19.097Z,0.92
2017-12-02T09:58:19.059Z,1.07
2017-12-02T09:59:19.022Z,0.95
2017-12-02T10:00:18.997Z,0.95
2017-12-02T10:01:18.968Z,1.00
2017-12-02T10:02:19.188Z,0.99
2017-12-02T10:03:18.890Z,0.90
2017-12-02T10:04:18.861Z,0.99
2017-12-02T10:05:18.830Z,1.13
2017-12-02T10:06:18.797Z,1.07
2017-12-02T10:07:18.771Z,1.16
2017-12-02T10:08:18.740Z,1.20
2017-12-02T10:09:18.701Z,1.29
2017-12-02T10:10:18.662Z,1.24
2017-12-02T10:11:18.638Z,1.34
2017-12-02T10:12:18.604Z,1.34
2017-12-02T10:13:18.575Z,1.43
2017-12-02T10:14:18.543Z,1.52
2017-12-02T10:15:18.525Z,1.43
2017-12-02T10:16:18.479Z,1.49
2017-12-02T10:17:18.442Z,1.42
2017-12-02T10:18:18.421Z,1.36
2017-12-02T10:19:18.383Z,1.34
2017-12-02T10:20:18.351Z,1.34
2017-12-02T10:21:18.323Z,1.32
2017-12-02T10:22:18.286Z,1.36
2017-12-02T10:23:18.258Z,1.34
2017-12-02T10:24:18.223Z,1.39
2017-12-02T10:25:18.200Z,1.34
2017-12-02T10:26:18.154Z,1.46
2017-12-02T10:27:18.142Z,1.54
2017-12-02T10:28:18.102Z,1.63
2017-12-02T10:29:18.063Z,1.57
2017-12-02T10:30:18.038Z,1.63
2017-12-02T10:31:17.997Z,1.64
2017-12-02T10:32:17.966Z,1.74
2017-12-02T10:33:17.950Z,1.79
2017-12-02T10:34:17.907Z,1.82
2017-12-02T10:35:17.879Z,1.86
2017-12-02T10:36:17.859Z,1.88
2017-12-02T10:37:17.819Z,1.72
2017-12-02T10:38:17.796Z,1.52
2017-12-02T10:39:17.751Z,1.38
2017-12-02T10:40:17.728Z,1.34
2017-12-02T10:41:17.699Z,1.25
2017-12-02T10:42:17.661Z,1.34
2017-12-02T10:43:17.935Z,1.34
2017-12-02T10:44:17.598Z,1.35
2017-12-02T10:45:17.573Z,1.32
2017-12-02T10:46:17.533Z,1.49
2017-12-02T10:47:17.505Z,1.36
2017-12-02T10:48:17.476Z,1.28
2017-12-02T10:49:17.451Z,1.52
2017-12-02T10:50:17.412Z,1.54
2017-12-02T10:51:17.382Z,1.39
2017-12-02T10:52:17.346Z,1.46
2017-12-02T10:53:17.315Z,1.36
2017-12-02T10:54:17.284Z,1.49
2017-12-02T10:55:17.257Z,1.49
2017-12-02T10:56:17.233Z,1.46
2017-12-02T10:57:17.189Z,1.46
2017-12-02T10:58:17.162Z,1.56
2017-12-02T10:59:17.136Z,1.57
2017-12-02T11:00:17.117Z,1.54
2017-12-02T11:01:17.071Z,1.64
2017-12-02T11:02:17.036Z,1.64
2017-12-02T11:03:17.008Z,1.54
2017-12-02T11:04:16.973Z,1.57
2017-12-02T11:05:16.952Z,1.60
2017-12-02T11:06:16.921Z,1.63
2017-12-02T11:07:16.877Z,1.70
2017-12-02T11:08:16.856Z,1.67
2017-12-02T11:09:16.829Z,1.71
2017-12-02T11:10:16.787Z,1.70
2017-12-02T11:11:16.781Z,1.70
2017-12-02T11:12:16.728Z,1.65
2017-12-02T11:13:16.698Z,1.61
2017-12-02T11:14:16.671Z,1.63
2017-12-02T11:15:16.636Z,1.67
2017-12-02T11:16:16.610Z,1.70
2017-12-02T11:17:16.581Z,1.65
2017-12-02T11:18:16.547Z,1.61
2017-12-02T11:19:16.509Z,1.71
2017-12-02T11:20:16.488Z,1.65
2017-12-02T11:21:16.457Z,1.70
2017-12-02T11:22:16.421Z,1.70
2017-12-02T11:23:16.391Z,1.65
2017-12-02T11:24:16.367Z,1.72
2017-12-02T11:25:16.334Z,1.71
2017-12-02T11:26:16.289Z,1.71
2017-12-02T11:27:16.262Z,1.68
2017-12-02T11:28:16.240Z,1.75
2017-12-02T11:29:16.206Z,1.71
2017-12-02T11:30:16.472Z,1.89
2017-12-02T11:31:16.152Z,1.79
2017-12-02T11:32:16.115Z,1.70
2017-12-02T11:33:16.096Z,1.88
2017-12-02T11:34:16.052Z,1.75
2017-12-02T11:35:16.021Z,1.77
2017-12-02T11:36:15.985Z,1.86
2017-12-02T11:37:15.957Z,1.82
2017-12-02T11:38:15.918Z,1.88
2017-12-02T11:39:15.896Z,1.88
2017-12-02T11:40:15.863Z,1.81
2017-12-02T11:41:15.821Z,1.86
2017-12-02T11:42:15.801Z,1.67
2017-12-02T11:43:15.773Z,1.74
2017-12-02T11:44:15.736Z,1.81
2017-12-02T11:45:15.705Z,1.89
2017-12-02T11:46:15.672Z,1.92
2017-12-02T11:47:15.639Z,1.89
2017-12-02T11:48:15.622Z,1.90
2017-12-02T11:49:15.579Z,1.77
2017-12-02T11:50:15.551Z,1.74
2017-12-02T11:51:15.509Z,1.88
2017-12-02T11:52:15.490Z,1.93
2017-12-02T11:53:15.458Z,1.92
2017-12-02T11:54:15.421Z,1.92
2017-12-02T11:55:15.390Z,1.86
2017-12-02T11:56:15.355Z,1.89
2017-12-02T11:57:15.320Z,1.93
2017-12-02T11:58:15.303Z,1.81
2017-12-02T11:59:15.262Z,2.00
2017-12-02T12:00:15.481Z,1.85
2017-12-02T12:01:15.200Z,1.89
2017-12-02T12:02:15.158Z,1.88
2017-12-02T12:03:15.131Z,1.81
2017-12-02T12:04:15.105Z,1.77
2017-12-02T12:05:15.069Z,1.64
2017-12-02T12:06:15.293Z,1.61
2017-12-02T12:07:15.008Z,1.63
2017-12-02T12:08:14.982Z,1.68
2017-12-02T12:09:14.957Z,1.88
2017-12-02T12:10:14.909Z,1.79
2017-12-02T12:11:14.875Z,1.74
2017-12-02T12:12:14.853Z,1.83
2017-12-02T12:13:14.811Z,1.77
2017-12-02T12:14:14.785Z,1.65
2017-12-02T12:15:14.762Z,1.60
2017-12-02T12:16:14.735Z,1.64
2017-12-02T12:17:14.693Z,1.61
2017-12-02T12:18:14.652Z,1.65
2017-12-02T12:19:14.627Z,1.63
2017-12-02T12:20:14.597Z,1.65
2017-12-02T12:21:14.562Z,1.71
2017-12-02T12:22:14.536Z,1.70
2017-12-02T12:23:14.498Z,1.71
2017-12-02T12:24:14.468Z,1.71
2017-12-02T12:25:14.440Z,1.79
2017-12-02T12:26:14.411Z,1.74
2017-12-02T12:27:14.371Z,1.70
2017-12-02T12:28:14.343Z,1.79
2017-12-02T12:29:14.318Z,1.82
2017-12-02T12:30:14.286Z,1.85
2017-12-02T12:31:14.252Z,1.83
2017-12-02T12:32:14.221Z,1.88
2017-12-02T12:33:14.187Z,1.86
2017-12-02T12:34:14.155Z,2.00
2017-12-02T12:35:14.125Z,2.00
2017-12-02T12:36:14.345Z,2.01
2017-12-02T12:37:14.063Z,1.93
2017-12-02T12:38:14.031Z,2.01
2017-12-02T12:39:14.002Z,2.00
2017-12-02T12:40:13.961Z,1.86
2017-12-02T12:41:13.933Z,1.85
2017-12-02T12:42:13.908Z,1.85
2017-12-02T12:43:13.872Z,1.75
2017-12-02T12:44:13.839Z,1.83
2017-12-02T12:45:13.810Z,1.89
2017-12-02T12:46:13.777Z,1.79
2017-12-02T12:47:13.742Z,1.79
2017-12-02T12:48:14.060Z,1.71
2017-12-02T12:49:13.683Z,1.70
2017-12-02T12:50:13.643Z,1.81
2017-12-02T12:51:13.615Z,1.70
2017-12-02T12:52:13.586Z,1.70
2017-12-02T12:53:13.554Z,1.68
2017-12-02T12:54:13.862Z,1.70
2017-12-02T12:55:13.494Z,1.71
2017-12-02T12:56:13.451Z,1.68
2017-12-02T12:57:13.431Z,1.74
2017-12-02T12:58:13.407Z,1.70
2017-12-02T12:59:13.366Z,1.82
2017-12-02T13:00:13.384Z,1.86
2017-12-02T13:01:13.306Z,1.89
2017-12-02T13:02:13.260Z,1.90
2017-12-02T13:03:13.240Z,1.95
2017-12-02T13:04:13.217Z,1.83
2017-12-02T13:05:13.176Z,1.88
2017-12-02T13:06:13.140Z,1.85
2017-12-02T13:07:13.116Z,1.74
2017-12-02T13:08:13.081Z,1.64
2017-12-02T13:09:13.048Z,1.57
2017-12-02T13:10:13.017Z,1.65
2017-12-02T13:11:12.982Z,1.74
2017-12-02T13:12:13.195Z,1.57
2017-12-02T13:13:12.921Z,1.61
2017-12-02T13:14:12.888Z,1.52
2017-12-02T13:15:12.853Z,1.57
2017-12-02T13:16:12.815Z,1.54
2017-12-02T13:17:12.793Z,1.60
2017-12-02T13:18:12.809Z,1.56